createdAt,value
2023-03-15T08:49:42.510Z,1.20
2023-03-15T08:52:12.478Z,0.80
2023-03-15T08:54:44.808Z,1.00
2023-03-15T08:57:15.318Z,1.60
2023-03-15T08:59:42.707Z,1.80
2023-03-15T09:02:12.259Z,1.40
2023-03-15T09:04:39.699Z,1.10
2023-03-15T09:07:06.895Z,1.60
2023-03-15T09:09:34.456Z,1.70
2023-03-15T09:12:01.516Z,1.10
2023-03-15T09:14:28.775Z,1.60
2023-03-15T09:16:55.931Z,1.10
2023-03-15T09:19:38.599Z,1.60
2023-03-15T09:22:16.332Z,1.50
2023-03-15T09:25:05.961Z,1.10
2023-03-15T09:30:30.108Z,1.70
2023-03-15T09:32:57.512Z,1.40
2023-03-15T09:35:25.021Z,1.40
2023-03-15T09:37:52.323Z,2.00
2023-03-15T09:40:19.051Z,1.50
2023-03-15T09:43:08.856Z,1.40
2023-03-15T09:46:08.319Z,1.90
2023-03-15T09:48:37.990Z,1.80
2023-03-15T09:51:47.606Z,1.90
2023-03-15T09:54:26.336Z,1.30
2023-03-15T09:57:06.586Z,1.30
2023-03-15T09:59:44.649Z,1.60
2023-03-15T10:02:32.913Z,1.70
2023-03-15T10:05:11.930Z,1.30
2023-03-15T10:07:38.995Z,1.60
2023-03-15T10:10:19.245Z,1.10
2023-03-15T10:13:01.651Z,0.80
2023-03-15T10:15:54.168Z,0.90
2023-03-15T10:19:13.559Z,1.10
2023-03-15T10:22:27.175Z,0.70
2023-03-15T10:25:17.465Z,0.90
2023-03-15T10:28:04.961Z,1.30
2023-03-15T10:30:36.844Z,1.00
2023-03-15T10:33:14.884Z,1.40
2023-03-15T10:35:45.164Z,0.90
2023-03-15T10:38:18.581Z,0.90
2023-03-15T10:40:49.326Z,0.80
2023-03-15T10:43:26.845Z,1.10
2023-03-15T10:46:07.120Z,1.00
2023-03-15T10:48:38.337Z,1.50
2023-03-15T10:51:34.279Z,0.40
2023-03-15T10:54:24.907Z,1.00
2023-03-15T10:57:19.519Z,1.40
2023-03-15T11:00:08.661Z,1.20
2023-03-15T11:02:37.104Z,0.80
2023-03-15T11:05:16.961Z,1.10
2023-03-15T11:08:00.868Z,1.50
2023-03-15T11:10:34.261Z,1.20
2023-03-15T11:13:20.661Z,1.00
2023-03-15T11:16:04.020Z,1.00
2023-03-15T11:18:42.342Z,1.30
2023-03-15T11:21:15.002Z,1.00
2023-03-15T11:26:39.003Z,1.40
2023-03-15T11:29:20.561Z,1.00
2023-03-15T11:32:14.898Z,0.90
2023-03-15T11:34:57.699Z,0.80
2023-03-15T11:37:38.942Z,1.00
2023-03-15T11:40:22.606Z,1.80
2023-03-15T11:43:00.926Z,1.30
2023-03-15T11:45:39.865Z,1.00
2023-03-15T11:48:47.162Z,1.30
2023-03-15T11:51:14.865Z,1.20
2023-03-15T11:54:15.051Z,0.90
2023-03-15T11:56:57.247Z,0.40
2023-03-15T11:59:45.977Z,1.20
2023-03-15T12:02:13.905Z,0.80
2023-03-15T12:04:54.802Z,1.00
2023-03-15T12:07:23.974Z,1.20
2023-03-15T12:09:51.884Z,0.90
2023-03-15T12:12:24.860Z,1.60
2023-03-15T12:15:38.156Z,0.80
2023-03-15T12:18:06.544Z,0.80
2023-03-15T12:20:42.406Z,1.00
2023-03-15T12:23:19.606Z,1.20
2023-03-15T12:26:02.904Z,1.50
2023-03-15T12:28:41.265Z,0.70
2023-03-15T12:31:13.397Z,1.40
2023-03-15T12:33:54.145Z,1.00
2023-03-15T12:36:40.438Z,1.20
2023-03-15T12:39:13.842Z,0.90
2023-03-15T12:41:48.559Z,1.00
2023-03-15T12:44:38.953Z,1.10
2023-03-15T12:47:09.658Z,1.10
2023-03-15T12:49:45.812Z,1.20
2023-03-15T12:52:41.504Z,1.00
2023-03-15T12:55:18.588Z,1.00
2023-03-15T12:57:53.401Z,1.20
2023-03-15T13:00:29.895Z,1.00
2023-03-15T13:03:07.989Z,1.50
2023-03-15T13:06:04.590Z,0.90
2023-03-15T13:08:51.398Z,1.20
2023-03-15T13:11:47.746Z,1.70
2023-03-15T13:14:32.576Z,1.40
2023-03-15T13:17:36.524Z,1.20
2023-03-15T13:23:27.272Z,1.00
2023-03-15T13:26:27.318Z,1.10
2023-03-15T13:29:01.207Z,1.60
2023-03-15T13:31:31.669Z,1.50
2023-03-15T13:34:18.779Z,1.20
2023-03-15T13:36:52.938Z,1.10
2023-03-15T13:42:40.669Z,1.50
2023-03-15T13:45:15.041Z,1.20
2023-03-15T13:47:46.264Z,1.10
2023-03-15T13:50:22.468Z,1.30
2023-03-15T13:52:51.974Z,1.10
2023-03-15T13:55:24.787Z,1.40
2023-03-15T13:58:09.073Z,1.50
2023-03-15T14:00:37.867Z,1.00
2023-03-15T14:03:16.732Z,1.70
2023-03-15T14:05:54.343Z,1.50
2023-03-15T14:08:29.281Z,1.60
2023-03-15T19:53:01.912Z,6.20
2023-03-15T19:55:43.556Z,6.30
2023-03-15T19:58:11.287Z,6.30
2023-03-15T20:00:38.471Z,6.10
2023-03-15T20:03:05.786Z,6.90
2023-03-15T20:05:35.313Z,5.60
2023-03-15T20:08:02.783Z,5.90
2023-03-15T20:10:30.128Z,5.80
2023-03-15T20:13:00.851Z,6.50
2023-03-15T20:15:42.711Z,6.70
2023-03-15T20:18:12.381Z,6.00
2023-03-15T20:20:39.318Z,6.60
2023-03-15T20:23:06.481Z,8.00
2023-03-15T20:25:35.273Z,7.60
2023-03-15T20:28:03.657Z,11.50
2023-03-15T20:32:20.233Z,14.70
2023-03-15T20:34:47.185Z,14.90
2023-03-15T20:37:13.917Z,14.00
2023-03-15T20:39:40.688Z,12.70
2023-03-15T20:42:07.665Z,11.10
2023-03-15T20:44:34.496Z,11.70
2023-03-15T20:47:01.648Z,11.80
2023-03-15T20:49:29.441Z,12.80
2023-03-15T20:51:56.738Z,12.20
2023-03-15T20:54:23.904Z,12.90
2023-03-15T20:56:51.261Z,15.60
2023-03-15T20:59:18.550Z,15.00
2023-03-15T21:01:46.574Z,17.00
2023-03-15T21:04:14.127Z,17.00
2023-03-15T21:06:41.207Z,17.30
2023-03-15T21:09:22.597Z,17.00
2023-03-15T21:11:49.573Z,17.40
2023-03-15T21:14:16.349Z,17.50
2023-03-15T21:16:43.273Z,17.60
2023-03-15T21:19:10.314Z,19.20
2023-03-15T21:21:37.707Z,16.70
2023-03-15T21:24:05.809Z,15.40
2023-03-15T21:26:32.402Z,12.60
2023-03-15T21:28:59.143Z,12.80
2023-03-15T21:31:26.498Z,10.90
2023-03-15T21:33:53.494Z,11.70
2023-03-15T21:36:20.299Z,10.80
2023-03-15T21:38:47.262Z,10.00
2023-03-15T21:41:14.019Z,10.40
2023-03-15T21:43:41.018Z,9.60
2023-03-15T21:46:12.437Z,10.30
2023-03-15T21:48:41.313Z,11.40
2023-03-15T21:51:08.867Z,11.90
2023-03-15T21:53:36.482Z,12.30
2023-03-15T21:56:04.594Z,11.20
2023-03-15T21:58:31.550Z,11.60
2023-03-15T22:01:08.495Z,11.80
2023-03-15T22:03:36.188Z,11.70
2023-03-15T22:06:03.652Z,11.50
2023-03-15T22:08:45.401Z,12.90
2023-03-15T22:11:12.514Z,10.30
2023-03-15T22:13:41.161Z,12.90
2023-03-15T22:16:11.001Z,14.40
2023-03-15T22:18:37.786Z,16.90
2023-03-15T22:21:04.905Z,16.10
2023-03-15T22:23:32.175Z,17.00
2023-03-15T22:25:59.013Z,15.80
2023-03-15T22:28:25.884Z,15.80
2023-03-15T22:30:53.586Z,16.60
2023-03-15T22:33:22.237Z,15.20
2023-03-15T22:35:57.853Z,13.70
2023-03-15T22:38:26.018Z,15.10
2023-03-15T22:41:02.287Z,14.40
2023-03-15T22:43:29.525Z,15.10
2023-03-15T22:45:56.530Z,14.30
2023-03-15T22:48:23.826Z,13.20
2023-03-15T22:51:00.000Z,13.30
2023-03-15T22:53:28.406Z,11.00
2023-03-15T22:56:10.117Z,11.20
2023-03-15T22:58:37.559Z,10.80
2023-03-15T23:14:50.385Z,9.80
2023-03-15T23:36:48.620Z,9.30
2023-03-15T23:40:44.989Z,7.80
2023-03-15T23:44:07.494Z,7.90
2023-03-15T23:47:56.567Z,8.80
2023-03-15T23:55:15.606Z,7.20
2023-03-15T23:58:41.645Z,9.10
